Gallup Municipal Airport
KGUP : now visible

Aeroporto :











RITROVATECI SU...

 
LOGIN :

Iscrizione | Disclaimer

   EN    FR    IT 

 









Sommario :    VFR   VFR Marginale   IFR   IFR Intensivo   IFR Molto Intensivo
Visibilità : 
Base nubi : 
>= 8 km
>= 3000ft
5 / 8 km
1000 / 3000 ft
1500m / 5 km
500 / 1000 ft
800 / 1500m
200 / 500 ft
< 800m
< 200 ft
Simboli :   Temporali  Nebbia  Neve Forte  Precipitazioni Forti  Vento > 20 kt






- Altitudine del aeroporto : 6472 ft
- Codice IATA : GUP


KGUP - Gallup Municipal

ULTIMO METAR :
  • 250653Z AUTO 00000KT 10SM CLR M02/M04 A3013 RMK AO2 SLP196 T10221039 401001072

METARs OBSOLETI :
  • 250553Z AUTO 00000KT 10SM CLR M03/M05 A3013 RMK AO2 SLP215 T10331050 10083 21033 51006
  • 250453Z AUTO 00000KT 10SM CLR M02/M04 A3012 RMK AO2 SLP219 T10221039

TAF KGUP
Valido dal 25 a 06 ore il 26 a 06 ore UTC


250520Z 2506/2606 VRB06KT P6SM SCT200
FM251900 31007KT P6SM SCT250
FM260100 VRB06KT P6SM SCT250



MetMap, La meteo Aeronautica in un colpo d'occhio ! - Copyright ORBIFLY Dicembre 2007 - Disclaimer

ORBIFLY MET'MAP TEAM :

Programmazione e sviluppo : Alexandra Zaïnal
Concezione : Baudouin d'Aumeries
Aiuto per la programmazione : Marc-Olivier Méhu
Supporto tecnico e logistico : Manuel Goepfert
Aiuto per la traduzione : Arnaldo La Scala

Contatto : metmap@orbifly.com




FONTI E CREDITI :

   NOAA       Earth
Advisory